Latest Weather Observations for Rundle Island

IDQ60801

Issued at 4:32 pm EST Thursday 28 July 2016 (issued every 30 minutes, with the page automatically refreshed every 10 minutes)

About weather observations | Map of weather stations | Latest weather observations for QLD | Other Formats
Station Details ID: 039322 Name: RUNDLE ISLAND Lat: -23.53 Lon: 151.28 Height: 19.8 m
Data from the previous 72 hours. | See also: Recent months at Rundle Island
Date/Time
EST
Temp
°C
App
Temp
°C
Dew
Point
°C
Rel
Hum
%
Delta-T
°C
Wind Press
QNH
hPa
Press
MSL
hPa
Rain since
9am
mm
Dir  Spd
km/h
Gust
km/h
Spd
kts
Gust
kts
28/04:30pm 19.1 - - - - SE 19 22 10 12 1020.8 1020.7 -
28/04:00pm 18.9 - - - - SE 19 24 10 13 1020.6 1020.5 -
28/03:30pm 19.1 - - - - SE 19 22 10 12 1020.6 1020.5 -
28/03:00pm 19.1 - - - - SE 17 22 9 12 1020.6 1020.5 -
28/02:30pm 18.8 - - - - SE 20 24 11 13 1020.8 1020.7 -
28/02:00pm 18.8 - - - - SE 20 24 11 13 1020.8 1020.7 -
28/01:30pm 18.8 - - - - SSE 22 26 12 14 1021.1 1021.0 -
28/01:00pm 18.6 - - - - SSE 20 26 11 14 1021.5 1021.4 -
28/12:30pm 18.3 - - - - SSE 22 30 12 16 1021.9 1021.8 -
28/12:00pm 17.9 - - - - SSE 20 26 11 14 1022.4 1022.3 -
28/11:30am 17.8 - - - - SSE 26 32 14 17 1022.8 1022.7 -
28/11:00am 17.4 - - - - S 28 35 15 19 1023.1 1023.0 -
28/10:30am 17.1 - - - - SSE 35 43 19 23 1023.3 1023.2 -
28/10:00am 17.4 - - - - S 33 39 18 21 1023.6 1023.5 -
28/09:30am 17.2 - - - - S 32 37 17 20 1023.8 1023.7 -
28/09:00am 17.2 - - - - SSE 33 37 18 20 1023.7 1023.6 -
28/08:30am 17.3 - - - - SSE 37 41 20 22 1023.4 1023.3 -
28/08:00am 17.4 - - - - SSE 41 46 22 25 1023.4 1023.3 -
28/07:30am 17.5 - - - - SSE 39 46 21 25 1022.9 1022.8 -
28/07:00am 17.7 - - - - SSE 37 43 20 23 1022.4 1022.3 -
28/06:30am 17.7 - - - - SSE 33 41 18 22 1022.0 1021.9 -
28/06:00am 17.8 - - - - SSE 30 35 16 19 1021.8 1021.7 -
28/05:30am 18.0 - - - - SSE 32 37 17 20 1021.4 1021.3 -
28/05:00am 18.3 - - - - SSE 32 35 17 19 1021.4 1021.3 -
28/04:30am 18.5 - - - - SSE 33 41 18 22 1021.0 1020.9 -
28/04:00am 18.7 - - - - SSE 30 32 16 17 1020.9 1020.8 -
28/03:30am 19.0 - - - - S 28 33 15 18 1021.1 1021.0 -
28/03:00am 18.3 - - - - S 19 22 10 12 1021.3 1021.2 -
28/02:30am 18.3 - - - - S 17 22 9 12 1021.3 1021.2 -
28/02:00am 18.6 - - - - S 20 24 11 13 1021.3 1021.2 -
28/01:30am 19.0 - - - - S 22 26 12 14 1021.4 1021.3 -
28/01:00am 18.9 - - - - S 26 30 14 16 1021.5 1021.4 -
28/12:30am 19.3 - - - - SSW 28 33 15 18 1021.6 1021.5 -
28/12:00am 19.0 - - - - S 24 30 13 16 1021.5 1021.4 -
 
Date/Time
EST
Temp
°C
App
Temp
°C
Dew
Point
°C
Rel
Hum
%
Delta-T
°C
Wind Press
QNH
hPa
Press
MSL
hPa
Rain since
9am
mm
Dir  Spd
km/h
Gust
km/h
Spd
kts
Gust
kts
27/11:30pm 19.0 - - - - SSW 28 32 15 17 1021.2 1021.1 -
27/11:00pm 18.9 - - - - SSW 26 30 14 16 1021.2 1021.1 -
27/10:30pm 18.8 - - - - SW 15 19 8 10 1021.2 1021.1 -
27/10:00pm 18.9 - - - - SSW 13 17 7 9 1020.9 1020.8 -
27/09:30pm 19.4 - - - - SW 9 11 5 6 1020.9 1020.8 -
27/09:00pm 19.9 - - - - SSW 11 15 6 8 1020.6 1020.5 -
27/08:30pm 20.0 - - - - SSW 11 15 6 8 1020.3 1020.2 -
27/08:00pm 19.5 - - - - CALM 0 0 0 0 1020.2 1020.1 -
27/07:30pm 20.0 - - - - CALM 0 0 0 0 1019.6 1019.5 -
27/07:00pm 20.1 - - - - CALM 0 2 0 1 1019.2 1019.1 -
27/06:30pm 20.3 - - - - N 6 6 3 3 1018.8 1018.7 -
27/06:00pm 20.4 - - - - N 7 9 4 5 1018.5 1018.4 -
27/05:30pm 20.4 - - - - N 6 7 3 4 1018.2 1018.1 -
27/05:00pm 20.4 - - - - NNE 9 13 5 7 1017.9 1017.8 -
27/04:30pm 20.4 - - - - NE 9 11 5 6 1017.5 1017.4 -
27/04:00pm 20.7 - - - - NNE 13 15 7 8 1016.9 1016.8 -
27/03:30pm 21.7 - - - - NNE 9 11 5 6 1016.8 1016.7 -
27/03:00pm 20.9 - - - - NNE 9 11 5 6 1016.9 1016.8 -
27/02:30pm 20.4 - - - - N 7 9 4 5 1017.0 1016.9 -
27/02:00pm 20.9 - - - - NNE 9 11 5 6 1017.1 1017.0 -
27/01:30pm 21.1 - - - - NNE 7 11 4 6 1017.4 1017.3 -
27/01:00pm 21.1 - - - - ESE 9 11 5 6 1017.5 1017.4 -
27/12:30pm 20.5 - - - - E 11 15 6 8 1017.7 1017.6 -
27/12:00pm 20.5 - - - - ESE 11 13 6 7 1018.2 1018.1 -
27/11:30am 19.9 - - - - SE 11 13 6 7 1018.6 1018.5 -
27/11:00am 19.6 - - - - SE 11 13 6 7 1019.0 1018.9 -
27/10:30am 19.5 - - - - SE 11 13 6 7 1019.6 1019.5 -
27/10:00am 19.5 - - - - S 13 15 7 8 1020.0 1019.9 -
27/09:30am 19.1 - - - - S 17 19 9 10 1020.1 1020.0 -
27/09:00am 18.4 - - - - SSW 17 19 9 10 1020.2 1020.1 -
27/08:30am 18.2 - - - - SSW 19 22 10 12 1019.9 1019.8 -
27/08:00am 17.9 - - - - SSW 13 17 7 9 1019.4 1019.3 -
27/07:30am 17.5 - - - - SSW 19 20 10 11 1019.2 1019.1 -
27/07:00am 17.4 - - - - SSW 19 20 10 11 1018.9 1018.8 -
27/06:30am 18.2 - - - - S 13 15 7 8 1018.6 1018.5 -
27/06:00am 18.3 - - - - SSW 4 6 2 3 1018.2 1018.1 -
27/05:30am 18.0 - - - - SW 7 9 4 5 1018.2 1018.1 -
27/05:00am 18.0 - - - - SW 9 11 5 6 1018.2 1018.1 -
27/04:30am 18.1 - - - - SW 9 11 5 6 1018.1 1018.0 -
27/04:00am 18.3 - - - - SSW 11 13 6 7 1018.2 1018.1 -
27/03:30am 18.8 - - - - SSW 11 13 6 7 1018.2 1018.1 -
27/03:00am 18.9 - - - - SSW 9 11 5 6 1018.2 1018.1 -
27/02:30am 18.8 - - - - S 9 9 5 5 1018.3 1018.2 -
27/02:00am 18.8 - - - - S 9 11 5 6 1018.3 1018.2 -
27/01:30am 18.9 - - - - S 11 11 6 6 1018.5 1018.4 -
27/01:00am 18.9 - - - - S 11 13 6 7 1018.6 1018.5 -
27/12:30am 18.8 - - - - SSW 15 15 8 8 1018.7 1018.6 -
27/12:00am 20.0 - - - - SSE 11 11 6 6 1018.6 1018.5 -
 
Date/Time
EST
Temp
°C
App
Temp
°C
Dew
Point
°C
Rel
Hum
%
Delta-T
°C
Wind Press
QNH
hPa
Press
MSL
hPa
Rain since
9am
mm
Dir  Spd
km/h
Gust
km/h
Spd
kts
Gust
kts
26/11:30pm 19.9 - - - - SSE 9 11 5 6 1018.6 1018.5 -
26/11:00pm 19.5 - - - - SSE 7 9 4 5 1018.6 1018.5 -
26/10:30pm 20.1 - - - - SE 7 9 4 5 1018.7 1018.6 -
26/10:00pm 20.1 - - - - ESE 7 7 4 4 1018.7 1018.6 -
26/09:30pm 20.1 - - - - E 7 9 4 5 1018.5 1018.4 -
26/09:00pm 20.2 - - - - ENE 13 13 7 7 1018.2 1018.1 -
26/08:30pm 20.3 - - - - ENE 13 17 7 9 1018.0 1017.9 -
26/08:00pm 20.3 - - - - ENE 15 17 8 9 1017.9 1017.8 -
26/07:30pm 20.3 - - - - ENE 15 17 8 9 1017.8 1017.7 -
26/07:00pm 20.3 - - - - ENE 17 19 9 10 1017.4 1017.3 -
26/06:30pm 20.3 - - - - ENE 17 20 9 11 1017.0 1016.9 -
26/06:00pm 20.3 - - - - ENE 20 22 11 12 1016.7 1016.6 -
26/05:30pm 20.3 - - - - ENE 19 22 10 12 1016.5 1016.4 -
26/05:00pm 20.4 - - - - E 17 19 9 10 1016.5 1016.4 -
26/04:30pm 20.4 - - - - E 17 19 9 10 1016.3 1016.2 -
26/04:00pm 20.4 - - - - E 17 20 9 11 1016.2 1016.1 -
26/03:30pm 20.5 - - - - E 15 17 8 9 1016.2 1016.1 -
26/03:00pm 20.6 - - - - ESE 17 17 9 9 1016.3 1016.2 -
26/02:30pm 20.4 - - - - SE 15 17 8 9 1016.6 1016.5 -
26/02:00pm 20.3 - - - - SSE 17 20 9 11 1016.8 1016.7 -
26/01:30pm 20.3 - - - - SSE 19 20 10 11 1017.1 1017.0 -
26/01:00pm 20.2 - - - - SSE 19 22 10 12 1017.2 1017.1 -
26/12:30pm 19.8 - - - - SE 20 22 11 12 1017.6 1017.5 -
26/12:00pm 19.7 - - - - SSE 22 26 12 14 1018.3 1018.2 -
26/11:30am 19.4 - - - - SSE 24 26 13 14 1018.7 1018.6 -
26/11:00am 19.2 - - - - SSE 24 28 13 15 1018.9 1018.8 -
26/10:30am 19.2 - - - - SSE 26 28 14 15 1019.3 1019.2 -
26/10:00am 18.9 - - - - SSE 26 28 14 15 1019.5 1019.4 -
26/09:30am 18.5 - - - - SSE 24 28 13 15 1019.6 1019.5 -
26/09:00am 18.4 - - - - S 26 28 14 15 1019.5 1019.4 -
26/08:30am 18.2 - - - - S 22 24 12 13 1019.3 1019.2 -
26/08:00am 18.3 - - - - SSE 24 30 13 16 1019.2 1019.1 -
26/07:30am 18.4 - - - - SSE 24 26 13 14 1019.0 1018.9 -
26/07:00am 18.3 - - - - SSE 22 26 12 14 1018.8 1018.7 -
26/06:30am 18.4 - - - - SSE 24 28 13 15 1018.5 1018.4 -
26/06:00am 18.4 - - - - S 26 32 14 17 1018.1 1018.0 -
26/05:30am 19.6 - - - - SSE 20 26 11 14 1017.9 1017.8 -
26/05:00am 19.3 - - - - SE 19 20 10 11 1017.6 1017.5 -
26/04:30am 19.0 - - - - SSE 19 20 10 11 1017.5 1017.4 -
26/04:00am 19.0 - - - - SSE 17 19 9 10 1017.3 1017.2 -
26/03:30am 18.9 - - - - SSE 13 15 7 8 1017.2 1017.1 -
26/03:00am 18.6 - - - - S 13 17 7 9 1017.4 1017.3 -
26/02:30am 18.4 - - - - S 13 15 7 8 1017.5 1017.4 -
26/02:00am 18.8 - - - - S 11 13 6 7 1017.8 1017.7 -
26/01:30am 18.8 - - - - SSW 9 9 5 5 1018.1 1018.0 -
26/01:00am 18.6 - - - - SW 7 7 4 4 1018.3 1018.2 -
26/12:30am 19.1 - - - - SSW 7 7 4 4 1018.3 1018.2 -
26/12:00am 19.1 - - - - SSW 9 9 5 5 1018.2 1018.1 -
 
Date/Time
EST
Temp
°C
App
Temp
°C
Dew
Point
°C
Rel
Hum
%
Delta-T
°C
Wind Press
QNH
hPa
Press
MSL
hPa
Rain since
9am
mm
Dir  Spd
km/h
Gust
km/h
Spd
kts
Gust
kts
25/11:30pm 18.9 - - - - SW 7 9 4 5 1018.1 1018.0 -
25/11:00pm 18.9 - - - - SW 9 11 5 6 1018.1 1018.0 -
25/10:30pm 18.9 - - - - SW 6 9 3 5 1018.2 1018.1 -
25/10:00pm 20.1 - - - - CALM 0 0 0 0 1018.1 1018.0 -
25/09:30pm 19.9 - - - - E 4 4 2 2 1017.9 1017.8 -
25/09:00pm 20.1 - - - - NE 4 6 2 3 1017.9 1017.8 -
25/08:30pm 20.2 - - - - NNE 2 4 1 2 1017.8 1017.7 -
25/08:00pm 20.2 - - - - NE 6 7 3 4 1017.7 1017.6 -
25/07:30pm 20.1 - - - - ENE 11 13 6 7 1017.4 1017.3 -
25/07:00pm 20.2 - - - - ENE 13 15 7 8 1017.1 1017.0 -
25/06:30pm 20.1 - - - - NE 11 13 6 7 1016.6 1016.5 -
25/06:00pm 20.2 - - - - NE 9 11 5 6 1016.2 1016.1 -
25/05:30pm 20.5 - - - - NNE 7 7 4 4 1016.0 1015.9 -
25/05:00pm 21.0 - - - - NNE 6 9 3 5 1015.9 1015.8 -

Other Formats:

Comma delimited format used in spreadsheet applications
http://www.bom.gov.au/fwo/IDQ60801/IDQ60801.94378.axf

JavaScript Object Notation format (JSON) in row-major order
http://www.bom.gov.au/fwo/IDQ60801/IDQ60801.94378.json